Mora, Minnesota
Current Conditions -  °F | °C
As of 5:05 AM on Saturday 20 Dec 2014 (Local Time) from KJMR Reporting Station
Overcast Overcast  
Wind Chill: 21°   Ceiling: 1000
Heat Index: 28°   Visibility: 5mi
Dew Point: 25°   Wind: 7mph
Humidity: 86%   Direction: 160°SSE
Pressure: 30.14"   Gusts: NA
Location:  45.88°N, 93.29°W
Report Text: KJMR 201105Z AUTO 16006KT 5SM OVC010 M02/M04 A3014 RMK AO2
Loading
Personal Weather Stations






























Interactive Weather Map New forecast layout! Learn more

10-Day Weather Forecast

Advertisements
Track Severe Weather on mobile